sensor_id;sensor_type;location;lat;lon;timestamp;pressure;altitude;pressure_sealevel;temperature;humidity
34506;BME280;20748;42.632;23.198;2023-02-22T00:01:27;92017.94;;;4.91;71.81
34506;BME280;20748;42.632;23.198;2023-02-22T00:04:06;92013.03;;;4.79;72.10
34506;BME280;20748;42.632;23.198;2023-02-22T00:06:38;92020.03;;;4.79;72.16
34506;BME280;20748;42.632;23.198;2023-02-22T00:09:10;92014.34;;;4.77;72.34
34506;BME280;20748;42.632;23.198;2023-02-22T00:11:44;92024.44;;;4.73;72.54
34506;BME280;20748;42.632;23.198;2023-02-22T00:14:18;92027.25;;;4.72;72.27
34506;BME280;20748;42.632;23.198;2023-02-22T00:16:51;92018.22;;;4.69;71.92
34506;BME280;20748;42.632;23.198;2023-02-22T00:19:23;92019.00;;;4.69;71.74
34506;BME280;20748;42.632;23.198;2023-02-22T00:21:57;92022.09;;;4.66;72.06
34506;BME280;20748;42.632;23.198;2023-02-22T00:24:31;92005.84;;;4.50;72.92
34506;BME280;20748;42.632;23.198;2023-02-22T00:27:03;92020.56;;;4.55;73.48
34506;BME280;20748;42.632;23.198;2023-02-22T00:29:36;92009.47;;;4.54;73.23
34506;BME280;20748;42.632;23.198;2023-02-22T00:32:10;92009.97;;;4.51;73.58
34506;BME280;20748;42.632;23.198;2023-02-22T00:34:44;92009.47;;;4.49;73.34
34506;BME280;20748;42.632;23.198;2023-02-22T00:37:17;91999.13;;;4.44;74.17
34506;BME280;20748;42.632;23.198;2023-02-22T00:39:50;91978.47;;;4.23;73.80
34506;BME280;20748;42.632;23.198;2023-02-22T00:42:22;92003.00;;;4.41;73.65
34506;BME280;20748;42.632;23.198;2023-02-22T00:44:55;92005.59;;;4.36;73.54
34506;BME280;20748;42.632;23.198;2023-02-22T00:47:28;91998.13;;;4.29;74.20
34506;BME280;20748;42.632;23.198;2023-02-22T00:50:00;91996.03;;;4.32;74.11
34506;BME280;20748;42.632;23.198;2023-02-22T00:52:35;91994.72;;;4.13;74.18
34506;BME280;20748;42.632;23.198;2023-02-22T00:55:09;92000.69;;;4.14;74.52
34506;BME280;20748;42.632;23.198;2023-02-22T00:57:42;91988.81;;;4.13;74.07
34506;BME280;20748;42.632;23.198;2023-02-22T01:00:19;91999.38;;;4.01;74.19
34506;BME280;20748;42.632;23.198;2023-02-22T01:02:52;91994.19;;;3.96;74.25
34506;BME280;20748;42.632;23.198;2023-02-22T01:05:28;91983.38;;;3.94;76.15
34506;BME280;20748;42.632;23.198;2023-02-22T01:08:02;91981.56;;;3.89;76.09
34506;BME280;20748;42.632;23.198;2023-02-22T01:10:36;91984.13;;;3.89;75.78
34506;BME280;20748;42.632;23.198;2023-02-22T01:13:10;91982.06;;;3.86;76.08
34506;BME280;20748;42.632;23.198;2023-02-22T01:15:44;91980.25;;;3.81;76.21
34506;BME280;20748;42.632;23.198;2023-02-22T01:18:17;91974.31;;;3.75;76.37
34506;BME280;20748;42.632;23.198;2023-02-22T01:20:53;91970.41;;;3.62;77.36
34506;BME280;20748;42.632;23.198;2023-02-22T01:23:25;91967.06;;;3.67;76.86
34506;BME280;20748;42.632;23.198;2023-02-22T01:25:57;91975.34;;;3.64;77.21
34506;BME280;20748;42.632;23.198;2023-02-22T01:28:30;91967.56;;;3.59;77.34
34506;BME280;20748;42.632;23.198;2023-02-22T01:31:03;91971.19;;;3.58;77.30
34506;BME280;20748;42.632;23.198;2023-02-22T01:33:36;91971.44;;;3.56;77.34
34506;BME280;20748;42.632;23.198;2023-02-22T01:36:08;91965.50;;;3.56;77.46
34506;BME280;20748;42.632;23.198;2023-02-22T01:38:42;91966.78;;;3.58;76.42
34506;BME280;20748;42.632;23.198;2023-02-22T01:41:15;91968.34;;;3.49;75.84
34506;BME280;20748;42.632;23.198;2023-02-22T01:43:49;91972.16;;;3.36;77.19
34506;BME280;20748;42.632;23.198;2023-02-22T01:46:23;91968.78;;;3.30;77.04
34506;BME280;20748;42.632;23.198;2023-02-22T01:48:59;91969.28;;;3.27;77.22
34506;BME280;20748;42.632;23.198;2023-02-22T01:51:37;91972.91;;;3.26;77.26
34506;BME280;20748;42.632;23.198;2023-02-22T01:54:13;91968.78;;;3.25;76.95
34506;BME280;20748;42.632;23.198;2023-02-22T01:56:49;91972.91;;;3.26;77.58
34506;BME280;20748;42.632;23.198;2023-02-22T01:59:23;91979.56;;;3.17;78.02
34506;BME280;20748;42.632;23.198;2023-02-22T02:01:56;91969.50;;;3.15;78.21
34506;BME280;20748;42.632;23.198;2023-02-22T02:04:30;91978.00;;;3.11;78.05
34506;BME280;20748;42.632;23.198;2023-02-22T02:07:04;91975.16;;;3.07;78.48
34506;BME280;20748;42.632;23.198;2023-02-22T02:09:43;91970.50;;;3.09;78.06
34506;BME280;20748;42.632;23.198;2023-02-22T02:12:18;91974.09;;;3.03;78.74
34506;BME280;20748;42.632;23.198;2023-02-22T02:14:52;91969.19;;;3.01;79.11
34506;BME280;20748;42.632;23.198;2023-02-22T02:17:25;91964.56;;;3.03;78.89
34506;BME280;20748;42.632;23.198;2023-02-22T02:20:02;91966.13;;;3.04;79.23
34506;BME280;20748;42.632;23.198;2023-02-22T02:22:44;91962.00;;;3.03;78.63
34506;BME280;20748;42.632;23.198;2023-02-22T02:28:38;91970.47;;;2.93;79.24
34506;BME280;20748;42.632;23.198;2023-02-22T02:31:30;91964.47;;;2.82;79.70
34506;BME280;20748;42.632;23.198;2023-02-22T02:34:16;91959.31;;;2.82;79.55
34506;BME280;20748;42.632;23.198;2023-02-22T02:36:59;91973.78;;;2.94;79.24
34506;BME280;20748;42.632;23.198;2023-02-22T02:39:38;91976.91;;;2.96;78.86
34506;BME280;20748;42.632;23.198;2023-02-22T02:42:15;91976.63;;;2.92;78.23
34506;BME280;20748;42.632;23.198;2023-02-22T02:44:54;91974.31;;;2.91;77.74
34506;BME280;20748;42.632;23.198;2023-02-22T02:47:30;91977.91;;;2.90;78.05
34506;BME280;20748;42.632;23.198;2023-02-22T02:50:08;91978.94;;;2.94;78.16
34506;BME280;20748;42.632;23.198;2023-02-22T02:52:42;91981.97;;;2.80;78.19
34506;BME280;20748;42.632;23.198;2023-02-22T02:55:17;91987.38;;;2.79;78.52
34506;BME280;20748;42.632;23.198;2023-02-22T02:57:49;91987.91;;;2.76;78.47
34506;BME280;20748;42.632;23.198;2023-02-22T03:00:25;91986.06;;;2.76;79.10
34506;BME280;20748;42.632;23.198;2023-02-22T03:03:12;91987.09;;;2.75;79.92
34506;BME280;20748;42.632;23.198;2023-02-22T03:06:06;91988.34;;;2.67;80.15
34506;BME280;20748;42.632;23.198;2023-02-22T03:08:44;91987.59;;;2.67;80.63
34506;BME280;20748;42.632;23.198;2023-02-22T03:11:25;91996.03;;;2.62;80.12
34506;BME280;20748;42.632;23.198;2023-02-22T03:14:05;91993.38;;;2.47;80.96
34506;BME280;20748;42.632;23.198;2023-02-22T03:16:45;91992.84;;;2.39;81.20
34506;BME280;20748;42.632;23.198;2023-02-22T03:19:22;91981.19;;;2.32;82.12
34506;BME280;20748;42.632;23.198;2023-02-22T03:22:01;91987.91;;;2.38;81.59
34506;BME280;20748;42.632;23.198;2023-02-22T03:24:46;91987.63;;;2.34;81.82
34506;BME280;20748;42.632;23.198;2023-02-22T03:27:27;91984.78;;;2.31;82.02
34506;BME280;20748;42.632;23.198;2023-02-22T03:30:06;91994.06;;;2.32;82.07
34506;BME280;20748;42.632;23.198;2023-02-22T03:32:48;91985.53;;;2.31;82.47
34506;BME280;20748;42.632;23.198;2023-02-22T03:35:24;91982.50;;;2.34;82.23
34506;BME280;20748;42.632;23.198;2023-02-22T03:38:05;91985.09;;;2.39;81.86
34506;BME280;20748;42.632;23.198;2023-02-22T03:40:42;91988.44;;;2.40;82.14
34506;BME280;20748;42.632;23.198;2023-02-22T03:43:21;91990.50;;;2.38;81.67
34506;BME280;20748;42.632;23.198;2023-02-22T03:45:57;91983.06;;;2.41;82.29
34506;BME280;20748;42.632;23.198;2023-02-22T03:48:36;91986.06;;;2.33;81.85
34506;BME280;20748;42.632;23.198;2023-02-22T03:51:11;91989.94;;;2.31;81.57
34506;BME280;20748;42.632;23.198;2023-02-22T03:53:50;91988.16;;;2.36;81.15
34506;BME280;20748;42.632;23.198;2023-02-22T03:56:27;91987.09;;;2.32;81.86
34506;BME280;20748;42.632;23.198;2023-02-22T03:59:08;91985.34;;;2.38;81.76
34506;BME280;20748;42.632;23.198;2023-02-22T04:01:41;91986.66;;;2.40;81.49
34506;BME280;20748;42.632;23.198;2023-02-22T04:04:13;91986.13;;;2.44;82.01
34506;BME280;20748;42.632;23.198;2023-02-22T04:06:46;91972.44;;;2.33;81.43
34506;BME280;20748;42.632;23.198;2023-02-22T04:09:19;91989.78;;;2.48;80.34
34506;BME280;20748;42.632;23.198;2023-02-22T04:11:52;91990.03;;;2.46;80.25
34506;BME280;20748;42.632;23.198;2023-02-22T04:14:25;91987.44;;;2.46;80.59
34506;BME280;20748;42.632;23.198;2023-02-22T04:17:01;91983.22;;;2.30;81.39
34506;BME280;20748;42.632;23.198;2023-02-22T04:19:34;91984.47;;;2.22;82.04
34506;BME280;20748;42.632;23.198;2023-02-22T04:22:06;91980.41;;;2.31;81.49
34506;BME280;20748;42.632;23.198;2023-02-22T04:24:40;91980.94;;;2.38;81.37
34506;BME280;20748;42.632;23.198;2023-02-22T04:27:12;91982.53;;;2.39;81.30
34506;BME280;20748;42.632;23.198;2023-02-22T04:29:46;91983.25;;;2.35;81.19
34506;BME280;20748;42.632;23.198;2023-02-22T04:32:18;91985.53;;;2.31;82.26
34506;BME280;20748;42.632;23.198;2023-02-22T04:34:50;91980.16;;;2.33;81.75
34506;BME280;20748;42.632;23.198;2023-02-22T04:37:23;91991.72;;;2.30;82.00
34506;BME280;20748;42.632;23.198;2023-02-22T04:39:57;91982.22;;;2.31;82.51
34506;BME280;20748;42.632;23.198;2023-02-22T04:42:30;91993.00;;;2.27;82.45
34506;BME280;20748;42.632;23.198;2023-02-22T04:45:03;91990.09;;;2.19;81.86
34506;BME280;20748;42.632;23.198;2023-02-22T04:47:36;91967.63;;;2.09;82.26
34506;BME280;20748;42.632;23.198;2023-02-22T04:50:11;91994.44;;;2.13;82.66
34506;BME280;20748;42.632;23.198;2023-02-22T04:52:44;91992.53;;;2.03;83.57
34506;BME280;20748;42.632;23.198;2023-02-22T04:55:17;91980.25;;;2.10;83.04
34506;BME280;20748;42.632;23.198;2023-02-22T04:57:50;91980.25;;;2.10;82.74
34506;BME280;20748;42.632;23.198;2023-02-22T05:00:23;91982.84;;;2.10;83.16
34506;BME280;20748;42.632;23.198;2023-02-22T05:03:00;91992.38;;;2.15;83.44
34506;BME280;20748;42.632;23.198;2023-02-22T05:05:33;91984.13;;;2.13;83.39
34506;BME280;20748;42.632;23.198;2023-02-22T05:08:06;91982.03;;;2.10;83.29
34506;BME280;20748;42.632;23.198;2023-02-22T05:10:39;91983.59;;;2.11;83.71
34506;BME280;20748;42.632;23.198;2023-02-22T05:13:11;91983.13;;;2.14;84.03
34506;BME280;20748;42.632;23.198;2023-02-22T05:15:44;91983.34;;;2.12;83.91
34506;BME280;20748;42.632;23.198;2023-02-22T05:18:16;91987.72;;;2.12;84.61
34506;BME280;20748;42.632;23.198;2023-02-22T05:20:49;91991.06;;;2.12;84.73
34506;BME280;20748;42.632;23.198;2023-02-22T05:23:21;91989.81;;;2.15;84.19
34506;BME280;20748;42.632;23.198;2023-02-22T05:25:54;91992.66;;;2.19;83.60
34506;BME280;20748;42.632;23.198;2023-02-22T05:28:26;91995.75;;;2.21;83.80
34506;BME280;20748;42.632;23.198;2023-02-22T05:30:58;92003.66;;;2.09;83.98
34506;BME280;20748;42.632;23.198;2023-02-22T05:33:31;92012.16;;;2.09;84.47
34506;BME280;20748;42.632;23.198;2023-02-22T05:36:04;92007.75;;;2.05;84.45
34506;BME280;20748;42.632;23.198;2023-02-22T05:38:38;92007.25;;;2.08;83.71
34506;BME280;20748;42.632;23.198;2023-02-22T05:41:14;92015.31;;;1.89;85.04
34506;BME280;20748;42.632;23.198;2023-02-22T05:43:47;92015.56;;;1.87;85.50
34506;BME280;20748;42.632;23.198;2023-02-22T05:46:20;92022.09;;;1.95;85.38
34506;BME280;20748;42.632;23.198;2023-02-22T05:48:52;92018.50;;;1.96;85.73
34506;BME280;20748;42.632;23.198;2023-02-22T05:51:24;92019.84;;;2.04;85.22
34506;BME280;20748;42.632;23.198;2023-02-22T05:53:57;92018.28;;;2.03;85.97
34506;BME280;20748;42.632;23.198;2023-02-22T05:56:30;92024.78;;;1.83;86.37
34506;BME280;20748;42.632;23.198;2023-02-22T05:59:02;92024.69;;;1.73;86.78
34506;BME280;20748;42.632;23.198;2023-02-22T06:01:35;92028.19;;;1.89;86.75
34506;BME280;20748;42.632;23.198;2023-02-22T06:04:07;92025.94;;;1.70;87.61
34506;BME280;20748;42.632;23.198;2023-02-22T06:06:39;92024.75;;;1.78;88.13
34506;BME280;20748;42.632;23.198;2023-02-22T06:09:12;92028.69;;;1.86;88.18
34506;BME280;20748;42.632;23.198;2023-02-22T06:11:45;92036.63;;;1.84;88.53
34506;BME280;20748;42.632;23.198;2023-02-22T06:14:17;92039.03;;;1.91;88.29
34506;BME280;20748;42.632;23.198;2023-02-22T06:16:53;92026.50;;;2.00;87.96
34506;BME280;20748;42.632;23.198;2023-02-22T06:19:25;92036.25;;;1.98;88.21
34506;BME280;20748;42.632;23.198;2023-02-22T06:21:58;92036.56;;;2.07;88.02
34506;BME280;20748;42.632;23.198;2023-02-22T06:24:31;92027.41;;;2.16;87.80
34506;BME280;20748;42.632;23.198;2023-02-22T06:27:04;92035.91;;;2.17;88.35
34506;BME280;20748;42.632;23.198;2023-02-22T06:29:36;92032.34;;;2.23;88.14
34506;BME280;20748;42.632;23.198;2023-02-22T06:32:08;92037.75;;;2.21;88.77
34506;BME280;20748;42.632;23.198;2023-02-22T06:34:41;92025.25;;;2.35;87.98
34506;BME280;20748;42.632;23.198;2023-02-22T06:37:13;92034.56;;;2.41;88.23
34506;BME280;20748;42.632;23.198;2023-02-22T06:39:45;92032.06;;;2.52;88.41
34506;BME280;20748;42.632;23.198;2023-02-22T06:42:18;92035.19;;;2.59;87.33
34506;BME280;20748;42.632;23.198;2023-02-22T06:44:51;92043.19;;;2.63;88.16
34506;BME280;20748;42.632;23.198;2023-02-22T06:47:23;92030.94;;;2.80;87.11
34506;BME280;20748;42.632;23.198;2023-02-22T06:49:56;92030.53;;;2.99;86.71
34506;BME280;20748;42.632;23.198;2023-02-22T06:52:29;92032.41;;;3.14;86.92
34506;BME280;20748;42.632;23.198;2023-02-22T06:55:01;92028.88;;;3.31;86.63
34506;BME280;20748;42.632;23.198;2023-02-22T06:57:34;92031.53;;;3.46;85.29
34506;BME280;20748;42.632;23.198;2023-02-22T07:00:08;92024.09;;;3.66;85.39
34506;BME280;20748;42.632;23.198;2023-02-22T07:02:41;92028.00;;;3.79;85.22
34506;BME280;20748;42.632;23.198;2023-02-22T07:05:16;92025.72;;;3.98;84.27
34506;BME280;20748;42.632;23.198;2023-02-22T07:07:50;92023.16;;;4.24;83.32
34506;BME280;20748;42.632;23.198;2023-02-22T07:10:28;92026.50;;;4.50;79.83
34506;BME280;20748;42.632;23.198;2023-02-22T07:13:02;92029.09;;;4.76;78.71
34506;BME280;20748;42.632;23.198;2023-02-22T07:15:34;92028.53;;;4.95;80.40
34506;BME280;20748;42.632;23.198;2023-02-22T07:18:07;92019.66;;;5.17;78.89
34506;BME280;20748;42.632;23.198;2023-02-22T07:20:39;92022.72;;;5.40;77.18
34506;BME280;20748;42.632;23.198;2023-02-22T07:23:13;92017.44;;;5.66;74.57
34506;BME280;20748;42.632;23.198;2023-02-22T07:25:45;92019.34;;;5.95;72.90
34506;BME280;20748;42.632;23.198;2023-02-22T07:28:18;92016.59;;;6.26;69.73
34506;BME280;20748;42.632;23.198;2023-02-22T07:30:50;92026.00;;;6.51;70.80
34506;BME280;20748;42.632;23.198;2023-02-22T07:33:23;92025.28;;;6.75;70.94
34506;BME280;20748;42.632;23.198;2023-02-22T07:35:55;92022.00;;;6.94;69.59
34506;BME280;20748;42.632;23.198;2023-02-22T07:38:27;92024.31;;;7.20;69.36
34506;BME280;20748;42.632;23.198;2023-02-22T07:41:00;92025.16;;;7.39;68.76
34506;BME280;20748;42.632;23.198;2023-02-22T07:43:33;92023.09;;;7.61;69.20
34506;BME280;20748;42.632;23.198;2023-02-22T07:46:05;92020.38;;;7.90;62.95
34506;BME280;20748;42.632;23.198;2023-02-22T07:48:38;92020.59;;;8.13;64.43
34506;BME280;20748;42.632;23.198;2023-02-22T07:51:14;92010.47;;;8.31;62.87
34506;BME280;20748;42.632;23.198;2023-02-22T07:53:47;92023.03;;;8.62;62.09
34506;BME280;20748;42.632;23.198;2023-02-22T07:56:19;92014.81;;;8.88;60.97
34506;BME280;20748;42.632;23.198;2023-02-22T07:58:52;92017.38;;;9.07;59.24
34506;BME280;20748;42.632;23.198;2023-02-22T08:01:26;92019.97;;;9.35;60.07
34506;BME280;20748;42.632;23.198;2023-02-22T08:03:58;92018.44;;;9.62;57.10
34506;BME280;20748;42.632;23.198;2023-02-22T08:06:31;92010.97;;;9.84;57.85
34506;BME280;20748;42.632;23.198;2023-02-22T08:09:03;92018.72;;;10.12;56.62
34506;BME280;20748;42.632;23.198;2023-02-22T08:11:35;92018.25;;;10.32;56.31
34506;BME280;20748;42.632;23.198;2023-02-22T08:14:08;92009.13;;;10.58;56.00
34506;BME280;20748;42.632;23.198;2023-02-22T08:16:41;92011.88;;;10.84;54.18
34506;BME280;20748;42.632;23.198;2023-02-22T08:19:13;92009.38;;;11.02;51.18
34506;BME280;20748;42.632;23.198;2023-02-22T08:21:45;92008.53;;;11.24;49.49
34506;BME280;20748;42.632;23.198;2023-02-22T08:24:18;92010.31;;;11.47;49.29
34506;BME280;20748;42.632;23.198;2023-02-22T08:26:50;92005.16;;;11.64;48.02
34506;BME280;20748;42.632;23.198;2023-02-22T08:29:23;92006.09;;;11.86;48.30
34506;BME280;20748;42.632;23.198;2023-02-22T08:32:03;92000.13;;;11.86;47.36
34506;BME280;20748;42.632;23.198;2023-02-22T08:34:36;92004.69;;;11.80;46.77
34506;BME280;20748;42.632;23.198;2023-02-22T08:37:08;92000.63;;;12.05;46.63
34506;BME280;20748;42.632;23.198;2023-02-22T08:39:41;91998.31;;;12.30;45.33
34506;BME280;20748;42.632;23.198;2023-02-22T08:42:13;92001.69;;;12.57;43.77
34506;BME280;20748;42.632;23.198;2023-02-22T08:44:46;91999.06;;;12.75;44.78
34506;BME280;20748;42.632;23.198;2023-02-22T08:47:19;91999.47;;;12.95;43.80
34506;BME280;20748;42.632;23.198;2023-02-22T08:49:51;91996.66;;;13.09;44.44
34506;BME280;20748;42.632;23.198;2023-02-22T08:52:23;91996.88;;;13.34;43.78
34506;BME280;20748;42.632;23.198;2023-02-22T08:54:56;91991.16;;;13.40;41.64
34506;BME280;20748;42.632;23.198;2023-02-22T08:57:28;91993.22;;;13.65;41.69
34506;BME280;20748;42.632;23.198;2023-02-22T09:00:03;91987.88;;;13.82;41.09
34506;BME280;20748;42.632;23.198;2023-02-22T09:02:36;91990.13;;;13.93;42.09
34506;BME280;20748;42.632;23.198;2023-02-22T09:05:08;91992.63;;;13.89;42.53
34506;BME280;20748;42.632;23.198;2023-02-22T09:07:41;91986.94;;;13.87;41.57
34506;BME280;20748;42.632;23.198;2023-02-22T09:10:14;91993.47;;;14.23;41.07
34506;BME280;20748;42.632;23.198;2023-02-22T09:12:47;91996.09;;;14.23;40.74
34506;BME280;20748;42.632;23.198;2023-02-22T09:15:21;91997.13;;;14.10;40.16
34506;BME280;20748;42.632;23.198;2023-02-22T09:17:53;91990.25;;;14.18;40.68
34506;BME280;20748;42.632;23.198;2023-02-22T09:20:27;91992.75;;;14.14;40.99
34506;BME280;20748;42.632;23.198;2023-02-22T09:22:59;91992.75;;;14.14;41.21
34506;BME280;20748;42.632;23.198;2023-02-22T09:25:33;91990.38;;;14.00;40.56
34506;BME280;20748;42.632;23.198;2023-02-22T09:28:06;91982.72;;;14.16;41.37
34506;BME280;20748;42.632;23.198;2023-02-22T09:30:39;91988.22;;;14.23;40.24
34506;BME280;20748;42.632;23.198;2023-02-22T09:33:13;91986.81;;;14.26;40.52
34506;BME280;20748;42.632;23.198;2023-02-22T09:35:48;91985.59;;;14.23;40.30
34506;BME280;20748;42.632;23.198;2023-02-22T09:38:22;91992.56;;;14.19;39.23
34506;BME280;20748;42.632;23.198;2023-02-22T09:41:02;91984.38;;;14.21;40.17
34506;BME280;20748;42.632;23.198;2023-02-22T09:43:44;91990.41;;;14.21;38.38
34506;BME280;20748;42.632;23.198;2023-02-22T09:46:25;91986.94;;;14.30;39.49
34506;BME280;20748;42.632;23.198;2023-02-22T09:49:02;91992.06;;;14.26;39.19
34506;BME280;20748;42.632;23.198;2023-02-22T09:51:41;91997.13;;;14.31;38.75
34506;BME280;20748;42.632;23.198;2023-02-22T09:54:20;91983.47;;;14.38;37.85
34506;BME280;20748;42.632;23.198;2023-02-22T09:56:56;91980.41;;;14.36;38.48
34506;BME280;20748;42.632;23.198;2023-02-22T09:59:30;91976.75;;;14.28;38.27
34506;BME280;20748;42.632;23.198;2023-02-22T10:02:17;91990.41;;;14.43;38.33
34506;BME280;20748;42.632;23.198;2023-02-22T10:04:57;91988.84;;;14.63;39.63
34506;BME280;20748;42.632;23.198;2023-02-22T10:07:34;91984.88;;;14.78;38.21
34506;BME280;20748;42.632;23.198;2023-02-22T10:10:14;91971.28;;;14.76;36.91
34506;BME280;20748;42.632;23.198;2023-02-22T10:12:55;91976.13;;;14.86;36.30
34506;BME280;20748;42.632;23.198;2023-02-22T10:15:41;91963.22;;;15.06;35.82
34506;BME280;20748;42.632;23.198;2023-02-22T10:21:43;91959.97;;;15.22;36.03
34506;BME280;20748;42.632;23.198;2023-02-22T10:24:31;91953.97;;;15.46;36.10
34506;BME280;20748;42.632;23.198;2023-02-22T10:27:11;91949.66;;;15.54;37.43
34506;BME280;20748;42.632;23.198;2023-02-22T10:29:49;91945.94;;;15.80;36.19
34506;BME280;20748;42.632;23.198;2023-02-22T10:32:27;91938.16;;;16.24;36.33
34506;BME280;20748;42.632;23.198;2023-02-22T10:35:05;91928.91;;;16.43;34.96
34506;BME280;20748;42.632;23.198;2023-02-22T10:37:44;91931.91;;;16.74;34.72
34506;BME280;20748;42.632;23.198;2023-02-22T10:40:21;91926.25;;;16.88;34.75
34506;BME280;20748;42.632;23.198;2023-02-22T10:42:54;91922.13;;;17.03;35.12
34506;BME280;20748;42.632;23.198;2023-02-22T10:45:28;91916.75;;;16.99;34.25
34506;BME280;20748;42.632;23.198;2023-02-22T10:48:05;91912.34;;;16.59;34.71
34506;BME280;20748;42.632;23.198;2023-02-22T10:50:42;91903.56;;;16.99;34.31
34506;BME280;20748;42.632;23.198;2023-02-22T10:53:15;91903.09;;;17.10;33.13
34506;BME280;20748;42.632;23.198;2023-02-22T10:56:12;91900.69;;;16.88;33.04
34506;BME280;20748;42.632;23.198;2023-02-22T10:58:48;91900.59;;;17.33;33.56
34506;BME280;20748;42.632;23.198;2023-02-22T11:01:25;91900.19;;;17.15;33.27
34506;BME280;20748;42.632;23.198;2023-02-22T11:04:01;91894.94;;;17.15;33.91
34506;BME280;20748;42.632;23.198;2023-02-22T11:06:36;91895.31;;;17.01;34.17
34506;BME280;20748;42.632;23.198;2023-02-22T11:09:11;91888.47;;;17.12;34.30
34506;BME280;20748;42.632;23.198;2023-02-22T11:11:46;91894.53;;;17.49;33.82
34506;BME280;20748;42.632;23.198;2023-02-22T11:14:25;91890.53;;;17.91;33.40
34506;BME280;20748;42.632;23.198;2023-02-22T11:16:59;91891.81;;;17.81;32.30
34506;BME280;20748;42.632;23.198;2023-02-22T11:19:33;91891.31;;;17.55;32.29
34506;BME280;20748;42.632;23.198;2023-02-22T11:22:12;91888.22;;;17.89;30.92
34506;BME280;20748;42.632;23.198;2023-02-22T11:24:47;91885.94;;;18.07;32.69
34506;BME280;20748;42.632;23.198;2023-02-22T11:27:26;91881.38;;;18.24;31.86
34506;BME280;20748;42.632;23.198;2023-02-22T11:30:20;91883.56;;;18.02;29.85
34506;BME280;20748;42.632;23.198;2023-02-22T11:32:55;91874.75;;;18.34;30.63
34506;BME280;20748;42.632;23.198;2023-02-22T11:35:33;91874.38;;;18.55;31.60
34506;BME280;20748;42.632;23.198;2023-02-22T11:38:17;91875.94;;;18.36;30.23
34506;BME280;20748;42.632;23.198;2023-02-22T11:41:10;91865.31;;;18.33;30.49
34506;BME280;20748;42.632;23.198;2023-02-22T11:43:46;91869.81;;;18.52;29.90
34506;BME280;20748;42.632;23.198;2023-02-22T11:46:21;91860.72;;;18.73;29.63
34506;BME280;20748;42.632;23.198;2023-02-22T11:48:59;91857.09;;;18.81;29.21
34506;BME280;20748;42.632;23.198;2023-02-22T11:51:43;91859.06;;;18.88;29.73
34506;BME280;20748;42.632;23.198;2023-02-22T11:54:42;91856.44;;;18.21;28.62
34506;BME280;20748;42.632;23.198;2023-02-22T11:57:28;91851.22;;;18.25;30.05
34506;BME280;20748;42.632;23.198;2023-02-22T12:00:11;91860.47;;;18.35;30.13
34506;BME280;20748;42.632;23.198;2023-02-22T12:02:58;91851.66;;;18.50;29.54
34506;BME280;20748;42.632;23.198;2023-02-22T12:05:46;91846.97;;;18.63;30.16
34506;BME280;20748;42.632;23.198;2023-02-22T12:08:37;91844.69;;;18.62;30.53
34506;BME280;20748;42.632;23.198;2023-02-22T12:11:19;91849.63;;;18.01;29.63
34506;BME280;20748;42.632;23.198;2023-02-22T12:14:03;91842.31;;;17.94;30.74
34506;BME280;20748;42.632;23.198;2023-02-22T12:16:58;91845.59;;;18.27;30.50
34506;BME280;20748;42.632;23.198;2023-02-22T12:19:36;91829.22;;;18.41;29.86
34506;BME280;20748;42.632;23.198;2023-02-22T12:22:16;91829.56;;;18.59;29.43
34506;BME280;20748;42.632;23.198;2023-02-22T12:24:51;91829.19;;;18.84;29.64
34506;BME280;20748;42.632;23.198;2023-02-22T12:27:43;91819.41;;;18.88;29.78
34506;BME280;20748;42.632;23.198;2023-02-22T12:30:20;91814.66;;;18.97;29.47
34506;BME280;20748;42.632;23.198;2023-02-22T12:32:57;91826.69;;;18.95;29.45
34506;BME280;20748;42.632;23.198;2023-02-22T12:35:33;91812.41;;;18.99;29.36
34506;BME280;20748;42.632;23.198;2023-02-22T12:38:13;91813.25;;;19.03;30.05
34506;BME280;20748;42.632;23.198;2023-02-22T12:40:52;91805.56;;;19.18;30.47
34506;BME280;20748;42.632;23.198;2023-02-22T12:43:31;91805.38;;;19.07;29.97
34506;BME280;20748;42.632;23.198;2023-02-22T12:46:09;91801.28;;;18.86;30.79
34506;BME280;20748;42.632;23.198;2023-02-22T12:48:46;91808.72;;;18.54;30.62
34506;BME280;20748;42.632;23.198;2023-02-22T12:51:26;91809.81;;;18.52;30.37
34506;BME280;20748;42.632;23.198;2023-02-22T12:54:00;91803.28;;;18.23;30.45
34506;BME280;20748;42.632;23.198;2023-02-22T12:56:39;91807.47;;;18.47;31.61
34506;BME280;20748;42.632;23.198;2023-02-22T12:59:17;91804.06;;;18.47;31.62
34506;BME280;20748;42.632;23.198;2023-02-22T13:01:55;91800.13;;;18.37;31.53
34506;BME280;20748;42.632;23.198;2023-02-22T13:04:30;91811.19;;;18.23;31.35
34506;BME280;20748;42.632;23.198;2023-02-22T13:07:21;91801.41;;;18.23;31.98
34506;BME280;20748;42.632;23.198;2023-02-22T13:10:17;91791.94;;;18.22;32.00
34506;BME280;20748;42.632;23.198;2023-02-22T13:12:56;91800.25;;;18.68;31.59
34506;BME280;20748;42.632;23.198;2023-02-22T13:15:40;91798.13;;;18.77;31.15
34506;BME280;20748;42.632;23.198;2023-02-22T13:18:19;91783.44;;;19.03;30.50
34506;BME280;20748;42.632;23.198;2023-02-22T13:20:58;91799.94;;;18.73;31.27
34506;BME280;20748;42.632;23.198;2023-02-22T13:23:38;91793.19;;;18.75;31.41
34506;BME280;20748;42.632;23.198;2023-02-22T13:26:19;91786.81;;;19.03;31.48
34506;BME280;20748;42.632;23.198;2023-02-22T13:28:57;91792.72;;;18.97;30.56
34506;BME280;20748;42.632;23.198;2023-02-22T13:37:44;91786.88;;;19.07;30.18
34506;BME280;20748;42.632;23.198;2023-02-22T13:40:41;91787.75;;;19.15;30.98
34506;BME280;20748;42.632;23.198;2023-02-22T13:43:27;91770.81;;;19.19;29.28
34506;BME280;20748;42.632;23.198;2023-02-22T13:49:23;91776.56;;;19.25;29.93
34506;BME280;20748;42.632;23.198;2023-02-22T13:52:02;91781.13;;;19.28;29.39
34506;BME280;20748;42.632;23.198;2023-02-22T13:54:40;91780.28;;;19.21;29.35
34506;BME280;20748;42.632;23.198;2023-02-22T13:57:19;91774.19;;;18.93;30.22